sensor_id;sensor_type;location;lat;lon;timestamp;P1;P2;P0
70243;PMS7003;57634;51.136;17.024;2023-02-01T00:00:20;0;0;0
70243;PMS7003;57634;51.136;17.024;2023-02-01T00:03:52;0;0;0
70243;PMS7003;57634;51.136;17.024;2023-02-01T00:06:54;0;0;0
70243;PMS7003;57634;51.136;17.024;2023-02-01T00:09:55;0;0;0
70243;PMS7003;57634;51.136;17.024;2023-02-01T00:12:56;0;0;0
70243;PMS7003;57634;51.136;17.024;2023-02-01T00:19:10;0;0;0
70243;PMS7003;57634;51.136;17.024;2023-02-01T00:22:13;0;0;0
70243;PMS7003;57634;51.136;17.024;2023-02-01T00:25:14;0;0;0
70243;PMS7003;57634;51.136;17.024;2023-02-01T00:28:16;0;0;0
70243;PMS7003;57634;51.136;17.024;2023-02-01T00:31:17;0;0;0
70243;PMS7003;57634;51.136;17.024;2023-02-01T00:34:19;0;0;0
70243;PMS7003;57634;51.136;17.024;2023-02-01T00:37:46;0;0;0
70243;PMS7003;57634;51.136;17.024;2023-02-01T00:40:48;0;0;0
70243;PMS7003;57634;51.136;17.024;2023-02-01T00:43:49;0;0;0
70243;PMS7003;57634;51.136;17.024;2023-02-01T00:46:51;1;0;0
70243;PMS7003;57634;51.136;17.024;2023-02-01T00:49:52;0;0;0
70243;PMS7003;57634;51.136;17.024;2023-02-01T00:52:53;0;0;0
70243;PMS7003;57634;51.136;17.024;2023-02-01T00:55:55;0;0;0
70243;PMS7003;57634;51.136;17.024;2023-02-01T00:58:56;0;0;0
70243;PMS7003;57634;51.136;17.024;2023-02-01T01:01:58;0;0;0
70243;PMS7003;57634;51.136;17.024;2023-02-01T01:04:59;0;0;0
70243;PMS7003;57634;51.136;17.024;2023-02-01T01:08:00;0;0;0
70243;PMS7003;57634;51.136;17.024;2023-02-01T01:11:08;0;0;0
70243;PMS7003;57634;51.136;17.024;2023-02-01T01:14:12;0;0;0
70243;PMS7003;57634;51.136;17.024;2023-02-01T01:17:38;0;0;0
70243;PMS7003;57634;51.136;17.024;2023-02-01T01:20:40;0;0;0
70243;PMS7003;57634;51.136;17.024;2023-02-01T01:23:41;0;0;0
70243;PMS7003;57634;51.136;17.024;2023-02-01T01:26:44;0;0;0
70243;PMS7003;57634;51.136;17.024;2023-02-01T01:29:45;0;0;0
70243;PMS7003;57634;51.136;17.024;2023-02-01T01:32:47;0;0;0
70243;PMS7003;57634;51.136;17.024;2023-02-01T01:35:48;0;0;0
70243;PMS7003;57634;51.136;17.024;2023-02-01T01:38:50;0;0;0
70243;PMS7003;57634;51.136;17.024;2023-02-01T01:41:52;0;0;0
70243;PMS7003;57634;51.136;17.024;2023-02-01T01:44:55;0;0;0
70243;PMS7003;57634;51.136;17.024;2023-02-01T01:48:04;0;0;0
70243;PMS7003;57634;51.136;17.024;2023-02-01T01:51:38;0;0;0
70243;PMS7003;57634;51.136;17.024;2023-02-01T01:54:48;0;0;0
70243;PMS7003;57634;51.136;17.024;2023-02-01T01:57:55;0;0;0
70243;PMS7003;57634;51.136;17.024;2023-02-01T02:01:00;0;0;0
70243;PMS7003;57634;51.136;17.024;2023-02-01T02:04:01;0;0;0
70243;PMS7003;57634;51.136;17.024;2023-02-01T02:07:04;0;0;0
70243;PMS7003;57634;51.136;17.024;2023-02-01T02:10:10;0;0;0
70243;PMS7003;57634;51.136;17.024;2023-02-01T02:13:13;1;0;0
70243;PMS7003;57634;51.136;17.024;2023-02-01T02:16:47;0;0;0
70243;PMS7003;57634;51.136;17.024;2023-02-01T02:26:31;0;0;0
70243;PMS7003;57634;51.136;17.024;2023-02-01T02:36:38;0;0;0
70243;PMS7003;57634;51.136;17.024;2023-02-01T02:39:48;0;0;0
70243;PMS7003;57634;51.136;17.024;2023-02-01T02:43:32;0;0;0
70243;PMS7003;57634;51.136;17.024;2023-02-01T02:46:53;0;0;0
70243;PMS7003;57634;51.136;17.024;2023-02-01T02:54:18;0;0;0
70243;PMS7003;57634;51.136;17.024;2023-02-01T02:57:34;0;0;0
70243;PMS7003;57634;51.136;17.024;2023-02-01T03:00:50;1;0;0
70243;PMS7003;57634;51.136;17.024;2023-02-01T03:04:31;0;0;0
70243;PMS7003;57634;51.136;17.024;2023-02-01T03:14:00;0;0;0
70243;PMS7003;57634;51.136;17.024;2023-02-01T03:17:06;0;0;0
70243;PMS7003;57634;51.136;17.024;2023-02-01T03:20:12;0;0;0
70243;PMS7003;57634;51.136;17.024;2023-02-01T03:23:42;0;0;0
70243;PMS7003;57634;51.136;17.024;2023-02-01T03:26:54;0;0;0
70243;PMS7003;57634;51.136;17.024;2023-02-01T03:33:09;0;0;0
70243;PMS7003;57634;51.136;17.024;2023-02-01T03:36:25;0;0;0
70243;PMS7003;57634;51.136;17.024;2023-02-01T03:39:59;0;0;0
70243;PMS7003;57634;51.136;17.024;2023-02-01T03:43:04;0;0;0
70243;PMS7003;57634;51.136;17.024;2023-02-01T03:46:12;0;0;0
70243;PMS7003;57634;51.136;17.024;2023-02-01T03:55:41;0;0;0
70243;PMS7003;57634;51.136;17.024;2023-02-01T03:59:09;0;0;0
70243;PMS7003;57634;51.136;17.024;2023-02-01T04:02:11;0;0;0
70243;PMS7003;57634;51.136;17.024;2023-02-01T04:05:12;0;0;0
70243;PMS7003;57634;51.136;17.024;2023-02-01T04:08:14;0;0;0
70243;PMS7003;57634;51.136;17.024;2023-02-01T04:11:16;0;0;0
70243;PMS7003;57634;51.136;17.024;2023-02-01T04:14:17;0;0;0
70243;PMS7003;57634;51.136;17.024;2023-02-01T04:17:19;0;0;0
70243;PMS7003;57634;51.136;17.024;2023-02-01T04:20:20;0;0;0
70243;PMS7003;57634;51.136;17.024;2023-02-01T04:23:21;1;0;0
70243;PMS7003;57634;51.136;17.024;2023-02-01T04:26:23;0;0;0
70243;PMS7003;57634;51.136;17.024;2023-02-01T04:29:24;0;0;0
70243;PMS7003;57634;51.136;17.024;2023-02-01T04:32:25;0;0;0
70243;PMS7003;57634;51.136;17.024;2023-02-01T04:35:26;0;0;0
70243;PMS7003;57634;51.136;17.024;2023-02-01T04:38:28;0;0;0
70243;PMS7003;57634;51.136;17.024;2023-02-01T04:41:58;0;0;0
70243;PMS7003;57634;51.136;17.024;2023-02-01T04:44:59;0;0;0
70243;PMS7003;57634;51.136;17.024;2023-02-01T04:48:01;0;0;0
70243;PMS7003;57634;51.136;17.024;2023-02-01T04:51:02;0;0;0
70243;PMS7003;57634;51.136;17.024;2023-02-01T04:54:03;0;0;0
70243;PMS7003;57634;51.136;17.024;2023-02-01T04:57:04;0;0;0
70243;PMS7003;57634;51.136;17.024;2023-02-01T05:00:06;0;0;0
70243;PMS7003;57634;51.136;17.024;2023-02-01T05:03:09;0;0;0
70243;PMS7003;57634;51.136;17.024;2023-02-01T05:06:10;0;0;0
70243;PMS7003;57634;51.136;17.024;2023-02-01T05:09:12;0;0;0
70243;PMS7003;57634;51.136;17.024;2023-02-01T05:12:13;0;0;0
70243;PMS7003;57634;51.136;17.024;2023-02-01T05:15:28;0;0;0
70243;PMS7003;57634;51.136;17.024;2023-02-01T05:18:55;2;0;0
70243;PMS7003;57634;51.136;17.024;2023-02-01T05:21:56;0;0;0
70243;PMS7003;57634;51.136;17.024;2023-02-01T05:24:58;1;0;0
70243;PMS7003;57634;51.136;17.024;2023-02-01T05:27:59;0;0;0
70243;PMS7003;57634;51.136;17.024;2023-02-01T05:31:01;0;0;0
70243;PMS7003;57634;51.136;17.024;2023-02-01T05:34:02;0;0;0
70243;PMS7003;57634;51.136;17.024;2023-02-01T05:37:03;0;0;0
70243;PMS7003;57634;51.136;17.024;2023-02-01T05:40:05;2;0;0
70243;PMS7003;57634;51.136;17.024;2023-02-01T05:43:07;1;0;0
70243;PMS7003;57634;51.136;17.024;2023-02-01T05:46:08;0;0;0
70243;PMS7003;57634;51.136;17.024;2023-02-01T05:49:13;0;0;0
70243;PMS7003;57634;51.136;17.024;2023-02-01T05:52:15;0;0;0
70243;PMS7003;57634;51.136;17.024;2023-02-01T05:55:20;0;0;0
70243;PMS7003;57634;51.136;17.024;2023-02-01T05:58:48;0;0;0
70243;PMS7003;57634;51.136;17.024;2023-02-01T06:01:50;1;0;0
70243;PMS7003;57634;51.136;17.024;2023-02-01T06:04:51;0;0;0
70243;PMS7003;57634;51.136;17.024;2023-02-01T06:07:52;0;0;0
70243;PMS7003;57634;51.136;17.024;2023-02-01T06:11:00;0;0;0
70243;PMS7003;57634;51.136;17.024;2023-02-01T06:14:03;0;0;0
70243;PMS7003;57634;51.136;17.024;2023-02-01T06:17:05;0;0;0
70243;PMS7003;57634;51.136;17.024;2023-02-01T06:20:07;0;0;0
70243;PMS7003;57634;51.136;17.024;2023-02-01T06:23:09;0;0;0
70243;PMS7003;57634;51.136;17.024;2023-02-01T06:26:10;0;0;0
70243;PMS7003;57634;51.136;17.024;2023-02-01T06:29:12;0;0;0
70243;PMS7003;57634;51.136;17.024;2023-02-01T06:32:14;0;0;0
70243;PMS7003;57634;51.136;17.024;2023-02-01T06:35:43;0;0;0
70243;PMS7003;57634;51.136;17.024;2023-02-01T06:38:45;1;0;0
70243;PMS7003;57634;51.136;17.024;2023-02-01T06:41:47;3;2;1
70243;PMS7003;57634;51.136;17.024;2023-02-01T06:44:49;0;0;0
70243;PMS7003;57634;51.136;17.024;2023-02-01T06:47:51;1;0;0
70243;PMS7003;57634;51.136;17.024;2023-02-01T06:50:52;1;0;0
70243;PMS7003;57634;51.136;17.024;2023-02-01T06:53:53;2;0;0
70243;PMS7003;57634;51.136;17.024;2023-02-01T06:56:54;0;0;0
70243;PMS7003;57634;51.136;17.024;2023-02-01T06:59:55;2;1;0
70243;PMS7003;57634;51.136;17.024;2023-02-01T07:02:57;0;0;0
70243;PMS7003;57634;51.136;17.024;2023-02-01T07:06:00;0;0;0
70243;PMS7003;57634;51.136;17.024;2023-02-01T07:09:02;2;1;0
70243;PMS7003;57634;51.136;17.024;2023-02-01T07:12:04;0;0;0
70243;PMS7003;57634;51.136;17.024;2023-02-01T07:15:35;1;0;0
70243;PMS7003;57634;51.136;17.024;2023-02-01T07:18:36;0;0;0
70243;PMS7003;57634;51.136;17.024;2023-02-01T07:21:37;0;0;0
70243;PMS7003;57634;51.136;17.024;2023-02-01T07:24:38;0;0;0
70243;PMS7003;57634;51.136;17.024;2023-02-01T07:27:39;1;0;0
70243;PMS7003;57634;51.136;17.024;2023-02-01T07:30:41;1;0;0
70243;PMS7003;57634;51.136;17.024;2023-02-01T07:33:42;3;2;0
70243;PMS7003;57634;51.136;17.024;2023-02-01T07:36:44;0;0;0
70243;PMS7003;57634;51.136;17.024;2023-02-01T07:39:46;0;0;0
70243;PMS7003;57634;51.136;17.024;2023-02-01T07:42:48;2;0;0
70243;PMS7003;57634;51.136;17.024;2023-02-01T07:45:53;2;1;0
70243;PMS7003;57634;51.136;17.024;2023-02-01T07:48:55;1;0;0
70243;PMS7003;57634;51.136;17.024;2023-02-01T07:51:56;0;0;0
70243;PMS7003;57634;51.136;17.024;2023-02-01T07:54:57;0;0;0
70243;PMS7003;57634;51.136;17.024;2023-02-01T07:58:25;0;0;0
70243;PMS7003;57634;51.136;17.024;2023-02-01T08:01:27;0;0;0
70243;PMS7003;57634;51.136;17.024;2023-02-01T08:04:29;1;0;0
70243;PMS7003;57634;51.136;17.024;2023-02-01T08:07:31;2;1;0
70243;PMS7003;57634;51.136;17.024;2023-02-01T08:10:33;0;0;0
70243;PMS7003;57634;51.136;17.024;2023-02-01T08:13:35;2;1;0
70243;PMS7003;57634;51.136;17.024;2023-02-01T08:16:37;1;0;0
70243;PMS7003;57634;51.136;17.024;2023-02-01T08:19:39;1;0;0
70243;PMS7003;57634;51.136;17.024;2023-02-01T08:22:40;0;0;0
70243;PMS7003;57634;51.136;17.024;2023-02-01T08:25:42;0;0;0
70243;PMS7003;57634;51.136;17.024;2023-02-01T08:32:22;0;0;0
70243;PMS7003;57634;51.136;17.024;2023-02-01T08:35:23;0;0;0
70243;PMS7003;57634;51.136;17.024;2023-02-01T08:38:25;0;0;0
70243;PMS7003;57634;51.136;17.024;2023-02-01T08:41:27;0;0;0
70243;PMS7003;57634;51.136;17.024;2023-02-01T08:44:31;1;0;0
70243;PMS7003;57634;51.136;17.024;2023-02-01T08:47:33;1;1;0
70243;PMS7003;57634;51.136;17.024;2023-02-01T08:50:34;1;0;0
70243;PMS7003;57634;51.136;17.024;2023-02-01T08:53:35;3;2;1
70243;PMS7003;57634;51.136;17.024;2023-02-01T08:56:37;1;1;0
70243;PMS7003;57634;51.136;17.024;2023-02-01T08:59:38;0;0;0
70243;PMS7003;57634;51.136;17.024;2023-02-01T09:02:39;1;1;0
70243;PMS7003;57634;51.136;17.024;2023-02-01T09:05:41;1;1;0
70243;PMS7003;57634;51.136;17.024;2023-02-01T09:08:46;6;6;4
70243;PMS7003;57634;51.136;17.024;2023-02-01T09:12:13;8;7;4
70243;PMS7003;57634;51.136;17.024;2023-02-01T09:15:15;14;9;6
70243;PMS7003;57634;51.136;17.024;2023-02-01T09:18:16;5;4;3
70243;PMS7003;57634;51.136;17.024;2023-02-01T09:21:18;3;2;1
70243;PMS7003;57634;51.136;17.024;2023-02-01T09:24:19;7;4;3
70243;PMS7003;57634;51.136;17.024;2023-02-01T09:27:20;3;3;2
70243;PMS7003;57634;51.136;17.024;2023-02-01T09:30:22;2;1;1
70243;PMS7003;57634;51.136;17.024;2023-02-01T09:33:24;4;3;2
70243;PMS7003;57634;51.136;17.024;2023-02-01T09:36:27;6;3;1
70243;PMS7003;57634;51.136;17.024;2023-02-01T09:39:28;4;2;1
70243;PMS7003;57634;51.136;17.024;2023-02-01T09:49:27;2;2;1
70243;PMS7003;57634;51.136;17.024;2023-02-01T09:55:48;1;1;1
70243;PMS7003;57634;51.136;17.024;2023-02-01T10:02:32;4;4;2
70243;PMS7003;57634;51.136;17.024;2023-02-01T10:22:22;3;2;1
70243;PMS7003;57634;51.136;17.024;2023-02-01T10:25:26;2;1;1
70243;PMS7003;57634;51.136;17.024;2023-02-01T10:28:34;3;3;2
70243;PMS7003;57634;51.136;17.024;2023-02-01T10:35:37;1;1;1
70243;PMS7003;57634;51.136;17.024;2023-02-01T10:38:32;0;0;0
70243;PMS7003;57634;51.136;17.024;2023-02-01T10:41:35;2;2;1
70243;PMS7003;57634;51.136;17.024;2023-02-01T10:44:43;2;1;0
70243;PMS7003;57634;51.136;17.024;2023-02-01T10:47:49;3;3;2
70243;PMS7003;57634;51.136;17.024;2023-02-01T10:57:39;1;0;0
70243;PMS7003;57634;51.136;17.024;2023-02-01T11:03:55;2;2;1
70243;PMS7003;57634;51.136;17.024;2023-02-01T11:10:40;2;1;0
70243;PMS7003;57634;51.136;17.024;2023-02-01T11:13:42;2;2;0
70243;PMS7003;57634;51.136;17.024;2023-02-01T11:16:48;1;1;0
70243;PMS7003;57634;51.136;17.024;2023-02-01T11:19:57;2;1;1
70243;PMS7003;57634;51.136;17.024;2023-02-01T11:23:04;4;1;0
70243;PMS7003;57634;51.136;17.024;2023-02-01T11:29:48;0;0;0
70243;PMS7003;57634;51.136;17.024;2023-02-01T11:32:52;0;0;0
70243;PMS7003;57634;51.136;17.024;2023-02-01T11:35:54;0;0;0
70243;PMS7003;57634;51.136;17.024;2023-02-01T11:42:14;0;0;0
70243;PMS7003;57634;51.136;17.024;2023-02-01T11:45:24;0;0;0
70243;PMS7003;57634;51.136;17.024;2023-02-01T11:48:28;2;1;0
70243;PMS7003;57634;51.136;17.024;2023-02-01T11:52:03;1;1;0
70243;PMS7003;57634;51.136;17.024;2023-02-01T12:05:21;1;1;0
70243;PMS7003;57634;51.136;17.024;2023-02-01T12:21:54;5;4;1
70243;PMS7003;57634;51.136;17.024;2023-02-01T12:45:20;1;0;0
70243;PMS7003;57634;51.136;17.024;2023-02-01T12:51:44;0;0;0
70243;PMS7003;57634;51.136;17.024;2023-02-01T12:54:55;1;1;0
70243;PMS7003;57634;51.136;17.024;2023-02-01T13:01:41;0;0;0
70243;PMS7003;57634;51.136;17.024;2023-02-01T13:04:52;2;2;1
70243;PMS7003;57634;51.136;17.024;2023-02-01T13:08:05;0;0;0
70243;PMS7003;57634;51.136;17.024;2023-02-01T13:11:18;1;1;0
70243;PMS7003;57634;51.136;17.024;2023-02-01T13:18:00;2;0;0
70243;PMS7003;57634;51.136;17.024;2023-02-01T13:21:07;0;0;0
70243;PMS7003;57634;51.136;17.024;2023-02-01T13:24:22;0;0;0
70243;PMS7003;57634;51.136;17.024;2023-02-01T13:27:28;0;0;0
70243;PMS7003;57634;51.136;17.024;2023-02-01T13:30:38;1;1;0
70243;PMS7003;57634;51.136;17.024;2023-02-01T13:37:33;0;0;0
70243;PMS7003;57634;51.136;17.024;2023-02-01T13:40:46;0;0;0
70243;PMS7003;57634;51.136;17.024;2023-02-01T13:44:00;1;1;0
70243;PMS7003;57634;51.136;17.024;2023-02-01T13:47:38;1;0;0
70243;PMS7003;57634;51.136;17.024;2023-02-01T13:50:43;3;2;1
70243;PMS7003;57634;51.136;17.024;2023-02-01T13:53:47;0;0;0
70243;PMS7003;57634;51.136;17.024;2023-02-01T13:56:49;0;0;0
70243;PMS7003;57634;51.136;17.024;2023-02-01T13:59:51;0;0;0
70243;PMS7003;57634;51.136;17.024;2023-02-01T14:06:44;0;0;0
70243;PMS7003;57634;51.136;17.024;2023-02-01T14:09:46;0;0;0
70243;PMS7003;57634;51.136;17.024;2023-02-01T14:12:48;0;0;0
70243;PMS7003;57634;51.136;17.024;2023-02-01T14:19:07;0;0;0
70243;PMS7003;57634;51.136;17.024;2023-02-01T14:22:33;0;0;0
70243;PMS7003;57634;51.136;17.024;2023-02-01T14:25:31;0;0;0
70243;PMS7003;57634;51.136;17.024;2023-02-01T14:29:42;0;0;0
70243;PMS7003;57634;51.136;17.024;2023-02-01T14:32:17;1;1;0
70243;PMS7003;57634;51.136;17.024;2023-02-01T14:35:23;0;0;0
70243;PMS7003;57634;51.136;17.024;2023-02-01T14:38:27;0;0;0
70243;PMS7003;57634;51.136;17.024;2023-02-01T14:41:32;0;0;0
70243;PMS7003;57634;51.136;17.024;2023-02-01T14:44:36;1;0;0
70243;PMS7003;57634;51.136;17.024;2023-02-01T14:47:38;0;0;0
70243;PMS7003;57634;51.136;17.024;2023-02-01T14:50:39;2;1;0
70243;PMS7003;57634;51.136;17.024;2023-02-01T14:54:09;2;2;1
70243;PMS7003;57634;51.136;17.024;2023-02-01T14:57:18;0;0;0
70243;PMS7003;57634;51.136;17.024;2023-02-01T15:00:26;0;0;0
70243;PMS7003;57634;51.136;17.024;2023-02-01T15:06:42;2;1;1
70243;PMS7003;57634;51.136;17.024;2023-02-01T15:09:53;2;2;1
70243;PMS7003;57634;51.136;17.024;2023-02-01T15:13:24;1;1;0
70243;PMS7003;57634;51.136;17.024;2023-02-01T15:16:27;1;0;0
70243;PMS7003;57634;51.136;17.024;2023-02-01T15:19:29;0;0;0
70243;PMS7003;57634;51.136;17.024;2023-02-01T15:22:33;0;0;0
70243;PMS7003;57634;51.136;17.024;2023-02-01T15:25:37;1;1;0
70243;PMS7003;57634;51.136;17.024;2023-02-01T15:28:39;1;1;0
70243;PMS7003;57634;51.136;17.024;2023-02-01T15:31:48;1;1;0
70243;PMS7003;57634;51.136;17.024;2023-02-01T15:34:51;0;0;0
70243;PMS7003;57634;51.136;17.024;2023-02-01T15:38:17;1;1;0
70243;PMS7003;57634;51.136;17.024;2023-02-01T15:41:33;1;1;0
70243;PMS7003;57634;51.136;17.024;2023-02-01T15:47:47;2;2;1
70243;PMS7003;57634;51.136;17.024;2023-02-01T15:50:50;2;1;0
70243;PMS7003;57634;51.136;17.024;2023-02-01T15:54:01;2;2;1
70243;PMS7003;57634;51.136;17.024;2023-02-01T15:57:05;1;1;0
70243;PMS7003;57634;51.136;17.024;2023-02-01T16:00:08;1;0;0
70243;PMS7003;57634;51.136;17.024;2023-02-01T16:03:46;2;0;0
70243;PMS7003;57634;51.136;17.024;2023-02-01T16:06:51;1;1;0
70243;PMS7003;57634;51.136;17.024;2023-02-01T16:09:56;1;1;1
70243;PMS7003;57634;51.136;17.024;2023-02-01T16:14:10;0;0;0
70243;PMS7003;57634;51.136;17.024;2023-02-01T16:17:11;1;0;0
70243;PMS7003;57634;51.136;17.024;2023-02-01T16:20:13;1;1;0
70243;PMS7003;57634;51.136;17.024;2023-02-01T16:23:14;3;3;1
70243;PMS7003;57634;51.136;17.024;2023-02-01T16:26:15;1;0;0
70243;PMS7003;57634;51.136;17.024;2023-02-01T16:29:17;1;1;0
70243;PMS7003;57634;51.136;17.024;2023-02-01T16:32:20;1;1;1
70243;PMS7003;57634;51.136;17.024;2023-02-01T16:35:23;2;1;0
70243;PMS7003;57634;51.136;17.024;2023-02-01T16:38:27;6;5;3
70243;PMS7003;57634;51.136;17.024;2023-02-01T16:41:29;5;5;4
70243;PMS7003;57634;51.136;17.024;2023-02-01T16:44:31;5;4;1
70243;PMS7003;57634;51.136;17.024;2023-02-01T16:47:32;10;9;6
70243;PMS7003;57634;51.136;17.024;2023-02-01T16:54:11;3;2;1
70243;PMS7003;57634;51.136;17.024;2023-02-01T16:57:14;1;1;1
70243;PMS7003;57634;51.136;17.024;2023-02-01T17:00:17;1;1;1
70243;PMS7003;57634;51.136;17.024;2023-02-01T17:03:20;1;1;1
70243;PMS7003;57634;51.136;17.024;2023-02-01T17:06:22;1;1;1
70243;PMS7003;57634;51.136;17.024;2023-02-01T17:09:26;2;1;0
70243;PMS7003;57634;51.136;17.024;2023-02-01T17:12:28;2;1;0
70243;PMS7003;57634;51.136;17.024;2023-02-01T17:15:33;3;3;1
70243;PMS7003;57634;51.136;17.024;2023-02-01T17:18:36;4;3;2
70243;PMS7003;57634;51.136;17.024;2023-02-01T17:22:03;4;2;1
70243;PMS7003;57634;51.136;17.024;2023-02-01T17:25:06;1;1;0
70243;PMS7003;57634;51.136;17.024;2023-02-01T17:28:13;3;3;2
70243;PMS7003;57634;51.136;17.024;2023-02-01T17:31:14;5;3;2
70243;PMS7003;57634;51.136;17.024;2023-02-01T17:34:17;2;1;1
70243;PMS7003;57634;51.136;17.024;2023-02-01T17:37:24;2;2;2
70243;PMS7003;57634;51.136;17.024;2023-02-01T17:40:31;2;1;1
70243;PMS7003;57634;51.136;17.024;2023-02-01T17:43:32;3;2;1
70243;PMS7003;57634;51.136;17.024;2023-02-01T17:46:34;1;1;1
70243;PMS7003;57634;51.136;17.024;2023-02-01T17:49:36;3;2;1
70243;PMS7003;57634;51.136;17.024;2023-02-01T17:53:04;4;2;1
70243;PMS7003;57634;51.136;17.024;2023-02-01T17:59:18;4;3;2
70243;PMS7003;57634;51.136;17.024;2023-02-01T18:02:22;6;3;2
70243;PMS7003;57634;51.136;17.024;2023-02-01T18:05:26;4;4;2
70243;PMS7003;57634;51.136;17.024;2023-02-01T18:08:33;3;3;1
70243;PMS7003;57634;51.136;17.024;2023-02-01T18:11:35;3;3;2
70243;PMS7003;57634;51.136;17.024;2023-02-01T18:14:36;5;4;2
70243;PMS7003;57634;51.136;17.024;2023-02-01T18:17:37;10;8;5
70243;PMS7003;57634;51.136;17.024;2023-02-01T18:21:07;3;3;2
70243;PMS7003;57634;51.136;17.024;2023-02-01T18:24:13;10;7;3
70243;PMS7003;57634;51.136;17.024;2023-02-01T18:27:15;4;4;2
70243;PMS7003;57634;51.136;17.024;2023-02-01T18:30:21;7;6;2
70243;PMS7003;57634;51.136;17.024;2023-02-01T18:33:24;6;5;3
70243;PMS7003;57634;51.136;17.024;2023-02-01T18:36:26;4;4;2
70243;PMS7003;57634;51.136;17.024;2023-02-01T18:39:29;6;4;2
70243;PMS7003;57634;51.136;17.024;2023-02-01T18:42:31;3;2;1
70243;PMS7003;57634;51.136;17.024;2023-02-01T18:48:41;9;7;5
70243;PMS7003;57634;51.136;17.024;2023-02-01T18:52:09;2;1;0
70243;PMS7003;57634;51.136;17.024;2023-02-01T18:55:13;1;1;0
70243;PMS7003;57634;51.136;17.024;2023-02-01T18:58:15;1;1;0
70243;PMS7003;57634;51.136;17.024;2023-02-01T19:01:18;2;1;0
70243;PMS7003;57634;51.136;17.024;2023-02-01T19:04:21;0;0;0
70243;PMS7003;57634;51.136;17.024;2023-02-01T19:07:22;2;1;0
70243;PMS7003;57634;51.136;17.024;2023-02-01T19:10:24;0;0;0
70243;PMS7003;57634;51.136;17.024;2023-02-01T19:13:27;0;0;0
70243;PMS7003;57634;51.136;17.024;2023-02-01T19:16:31;0;0;0
70243;PMS7003;57634;51.136;17.024;2023-02-01T19:19:39;0;0;0
70243;PMS7003;57634;51.136;17.024;2023-02-01T19:23:09;0;0;0
70243;PMS7003;57634;51.136;17.024;2023-02-01T19:26:12;0;0;0
70243;PMS7003;57634;51.136;17.024;2023-02-01T19:29:14;1;0;0
70243;PMS7003;57634;51.136;17.024;2023-02-01T19:32:16;0;0;0
70243;PMS7003;57634;51.136;17.024;2023-02-01T19:35:18;1;1;0
70243;PMS7003;57634;51.136;17.024;2023-02-01T19:38:21;1;1;0
70243;PMS7003;57634;51.136;17.024;2023-02-01T19:41:22;2;1;0
70243;PMS7003;57634;51.136;17.024;2023-02-01T19:44:24;0;0;0
70243;PMS7003;57634;51.136;17.024;2023-02-01T19:47:27;3;2;1
70243;PMS7003;57634;51.136;17.024;2023-02-01T19:50:28;3;2;1
70243;PMS7003;57634;51.136;17.024;2023-02-01T19:53:29;2;2;1
70243;PMS7003;57634;51.136;17.024;2023-02-01T19:56:31;1;1;0
70243;PMS7003;57634;51.136;17.024;2023-02-01T19:59:32;0;0;0
70243;PMS7003;57634;51.136;17.024;2023-02-01T20:03:01;1;1;0
70243;PMS7003;57634;51.136;17.024;2023-02-01T20:06:03;3;1;0
70243;PMS7003;57634;51.136;17.024;2023-02-01T20:09:08;1;1;0
70243;PMS7003;57634;51.136;17.024;2023-02-01T20:12:09;3;1;0
70243;PMS7003;57634;51.136;17.024;2023-02-01T20:15:14;0;0;0
70243;PMS7003;57634;51.136;17.024;2023-02-01T20:18:15;3;1;0
70243;PMS7003;57634;51.136;17.024;2023-02-01T20:21:17;2;0;0
70243;PMS7003;57634;51.136;17.024;2023-02-01T20:24:23;0;0;0
70243;PMS7003;57634;51.136;17.024;2023-02-01T20:27:24;1;1;0
70243;PMS7003;57634;51.136;17.024;2023-02-01T20:30:26;2;1;0
70243;PMS7003;57634;51.136;17.024;2023-02-01T20:33:29;0;0;0
70243;PMS7003;57634;51.136;17.024;2023-02-01T20:36:58;0;0;0
70243;PMS7003;57634;51.136;17.024;2023-02-01T20:40:00;0;0;0
70243;PMS7003;57634;51.136;17.024;2023-02-01T20:43:01;0;0;0
70243;PMS7003;57634;51.136;17.024;2023-02-01T20:46:03;1;1;0
70243;PMS7003;57634;51.136;17.024;2023-02-01T20:49:05;0;0;0
70243;PMS7003;57634;51.136;17.024;2023-02-01T20:52:06;1;0;0
70243;PMS7003;57634;51.136;17.024;2023-02-01T20:55:07;1;0;0
70243;PMS7003;57634;51.136;17.024;2023-02-01T20:58:08;1;1;0
70243;PMS7003;57634;51.136;17.024;2023-02-01T21:01:10;1;0;0
70243;PMS7003;57634;51.136;17.024;2023-02-01T21:04:12;0;0;0
70243;PMS7003;57634;51.136;17.024;2023-02-01T21:07:13;0;0;0
70243;PMS7003;57634;51.136;17.024;2023-02-01T21:10:14;0;0;0
70243;PMS7003;57634;51.136;17.024;2023-02-01T21:13:16;0;0;0
70243;PMS7003;57634;51.136;17.024;2023-02-01T21:16:18;0;0;0
70243;PMS7003;57634;51.136;17.024;2023-02-01T21:19:47;0;0;0
70243;PMS7003;57634;51.136;17.024;2023-02-01T21:22:48;0;0;0
70243;PMS7003;57634;51.136;17.024;2023-02-01T21:25:49;0;0;0
70243;PMS7003;57634;51.136;17.024;2023-02-01T21:28:52;0;0;0
70243;PMS7003;57634;51.136;17.024;2023-02-01T21:31:54;0;0;0
70243;PMS7003;57634;51.136;17.024;2023-02-01T21:34:56;0;0;0
70243;PMS7003;57634;51.136;17.024;2023-02-01T21:38:00;0;0;0
70243;PMS7003;57634;51.136;17.024;2023-02-01T21:41:02;0;0;0
70243;PMS7003;57634;51.136;17.024;2023-02-01T21:44:15;0;0;0
70243;PMS7003;57634;51.136;17.024;2023-02-01T21:47:18;0;0;0
70243;PMS7003;57634;51.136;17.024;2023-02-01T21:50:47;0;0;0
70243;PMS7003;57634;51.136;17.024;2023-02-01T21:53:48;0;0;0
70243;PMS7003;57634;51.136;17.024;2023-02-01T21:56:49;0;0;0
70243;PMS7003;57634;51.136;17.024;2023-02-01T21:59:51;0;0;0
70243;PMS7003;57634;51.136;17.024;2023-02-01T22:02:52;0;0;0
70243;PMS7003;57634;51.136;17.024;2023-02-01T22:05:53;0;0;0
70243;PMS7003;57634;51.136;17.024;2023-02-01T22:08:55;0;0;0
70243;PMS7003;57634;51.136;17.024;2023-02-01T22:11:56;0;0;0
70243;PMS7003;57634;51.136;17.024;2023-02-01T22:14:57;1;1;0
70243;PMS7003;57634;51.136;17.024;2023-02-01T22:17:58;1;1;0
70243;PMS7003;57634;51.136;17.024;2023-02-01T22:21:00;0;0;0
70243;PMS7003;57634;51.136;17.024;2023-02-01T22:24:04;0;0;0
70243;PMS7003;57634;51.136;17.024;2023-02-01T22:27:05;0;0;0
70243;PMS7003;57634;51.136;17.024;2023-02-01T22:30:08;0;0;0
70243;PMS7003;57634;51.136;17.024;2023-02-01T22:33:36;0;0;0
70243;PMS7003;57634;51.136;17.024;2023-02-01T22:36:38;1;0;0
70243;PMS7003;57634;51.136;17.024;2023-02-01T22:39:40;0;0;0
70243;PMS7003;57634;51.136;17.024;2023-02-01T22:42:42;0;0;0
70243;PMS7003;57634;51.136;17.024;2023-02-01T22:45:43;0;0;0
70243;PMS7003;57634;51.136;17.024;2023-02-01T22:48:45;0;0;0
70243;PMS7003;57634;51.136;17.024;2023-02-01T22:51:47;0;0;0
70243;PMS7003;57634;51.136;17.024;2023-02-01T22:54:52;0;0;0
70243;PMS7003;57634;51.136;17.024;2023-02-01T22:57:54;1;0;0
70243;PMS7003;57634;51.136;17.024;2023-02-01T23:01:03;1;0;0
70243;PMS7003;57634;51.136;17.024;2023-02-01T23:04:11;0;0;0
70243;PMS7003;57634;51.136;17.024;2023-02-01T23:07:40;1;0;0
70243;PMS7003;57634;51.136;17.024;2023-02-01T23:10:42;0;0;0
70243;PMS7003;57634;51.136;17.024;2023-02-01T23:13:43;0;0;0
70243;PMS7003;57634;51.136;17.024;2023-02-01T23:16:45;0;0;0
70243;PMS7003;57634;51.136;17.024;2023-02-01T23:19:47;0;0;0
70243;PMS7003;57634;51.136;17.024;2023-02-01T23:22:49;0;0;0
70243;PMS7003;57634;51.136;17.024;2023-02-01T23:25:50;2;0;0
70243;PMS7003;57634;51.136;17.024;2023-02-01T23:28:52;0;0;0